Time;durP1;ratioP1;P1;durP2;ratioP2;P2;SDS_P1;SDS_P2;PMS_P1;PMS_P2;Temp;Humidity;BMP_temperature;BMP_pressure;BME280_temperature;BME280_humidity;BME280_pressure;Samples;Min_cycle;Max_cycle;Signal;HPM_P1;HPM_P2
2023/04/08 00:00:01;;;;;;;5.90;1.08;;;12.80;67.50;;;;;;7403884;19;19922;-71
2023/04/08 00:02:27;;;;;;;4.78;1.30;;;12.90;67.60;;;;;;7403705;19;19948;-71
2023/04/08 00:04:53;;;;;;;4.03;1.10;;;12.80;67.90;;;;;;7406829;19;19915;-71
2023/04/08 00:07:19;;;;;;;5.78;1.00;;;12.70;68.20;;;;;;7404782;19;19924;-71
2023/04/08 00:09:44;;;;;;;3.25;1.17;;;12.60;68.50;;;;;;7405229;19;19923;-71
2023/04/08 00:12:10;;;;;;;3.70;1.10;;;12.60;68.80;;;;;;7401978;19;19911;-71
2023/04/08 00:14:37;;;;;;;4.38;1.25;;;12.70;69.00;;;;;;7404622;19;19938;-71
2023/04/08 00:17:03;;;;;;;2.63;0.75;;;12.60;69.00;;;;;;7400888;19;20015;-72
2023/04/08 00:19:29;;;;;;;3.40;1.10;;;12.60;69.30;;;;;;7405161;19;19934;-71
2023/04/08 00:21:54;;;;;;;7.45;1.65;;;12.60;70.00;;;;;;7401644;19;20331;-72
2023/04/08 00:24:20;;;;;;;4.93;0.90;;;12.50;69.70;;;;;;7402779;19;19915;-71
2023/04/08 00:26:46;;;;;;;4.72;0.80;;;12.50;70.20;;;;;;7401272;19;19934;-71
2023/04/08 00:29:11;;;;;;;4.82;1.00;;;12.40;70.40;;;;;;7403056;19;20331;-71
2023/04/08 00:31:37;;;;;;;4.10;0.80;;;12.40;70.70;;;;;;7401955;19;19933;-72
2023/04/08 00:34:03;;;;;;;3.78;0.90;;;12.40;70.80;;;;;;7400055;19;19927;-71
2023/04/08 00:36:29;;;;;;;5.38;1.13;;;12.40;71.20;;;;;;7403313;19;19923;-71
2023/04/08 00:38:55;;;;;;;4.38;1.20;;;12.40;70.90;;;;;;7404415;19;19930;-71
2023/04/08 00:41:21;;;;;;;4.40;0.98;;;12.40;71.50;;;;;;7399464;19;19950;-72
2023/04/08 00:43:46;;;;;;;6.07;1.15;;;12.40;71.20;;;;;;7404901;19;19914;-72
2023/04/08 00:46:12;;;;;;;5.82;1.00;;;12.40;71.40;;;;;;7399722;19;20331;-71
2023/04/08 00:48:38;;;;;;;5.30;0.95;;;12.40;71.50;;;;;;7406451;19;20632;-71
2023/04/08 00:51:04;;;;;;;3.92;1.35;;;12.30;71.40;;;;;;7399737;19;19921;-71
2023/04/08 00:53:31;;;;;;;3.13;1.20;;;12.30;72.00;;;;;;7403983;19;19919;-71
2023/04/08 00:55:58;;;;;;;5.00;1.10;;;12.20;72.20;;;;;;7403350;19;19937;-71
2023/04/08 00:58:24;;;;;;;3.85;1.50;;;12.20;72.70;;;;;;7404078;19;20303;-71
2023/04/08 01:01:04;;;;;;;4.13;1.30;;;12.20;72.90;;;;;;7400774;19;19948;-71
2023/04/08 01:03:56;;;;;;;3.53;1.00;;;12.20;73.40;;;;;;7403656;19;19911;-71
2023/04/08 01:06:41;;;;;;;6.28;1.30;;;12.30;73.30;;;;;;7398313;19;19931;-71
2023/04/08 01:09:07;;;;;;;6.15;1.40;;;12.30;73.70;;;;;;7402715;19;20271;-72
2023/04/08 01:11:36;;;;;;;5.25;1.88;;;12.40;74.90;;;;;;7402822;19;20326;-71
2023/04/08 01:14:06;;;;;;;6.38;1.40;;;12.40;74.70;;;;;;7403756;19;19915;-71
2023/04/08 01:16:32;;;;;;;5.32;1.10;;;12.30;75.10;;;;;;7400492;19;19910;-70
2023/04/08 01:18:58;;;;;;;2.92;0.80;;;12.30;75.50;;;;;;7402117;19;19930;-71
2023/04/08 01:21:27;;;;;;;3.70;0.90;;;12.30;75.70;;;;;;7401530;19;19914;-71
2023/04/08 01:24:15;;;;;;;3.45;1.00;;;12.20;75.90;;;;;;7399020;19;19921;-71
2023/04/08 01:26:41;;;;;;;3.55;0.80;;;12.20;76.60;;;;;;7401001;19;19952;-71
2023/04/08 01:29:10;;;;;;;5.40;0.90;;;12.20;76.60;;;;;;7399280;19;19923;-71
2023/04/08 01:31:38;;;;;;;6.75;1.02;;;12.20;77.30;;;;;;7403105;19;19943;-71
2023/04/08 01:34:05;;;;;;;6.38;1.20;;;12.10;77.50;;;;;;7399408;19;19931;-71
2023/04/08 01:36:34;;;;;;;4.13;0.90;;;12.10;77.60;;;;;;7402032;19;19928;-72
2023/04/08 01:39:02;;;;;;;3.20;1.65;;;12.10;77.80;;;;;;7400155;19;20267;-70
2023/04/08 01:41:29;;;;;;;5.28;0.85;;;12.10;78.00;;;;;;7401761;19;19915;-71
2023/04/08 01:43:55;;;;;;;;;;;12.10;78.30;;;;;;7403869;19;19978;-71
2023/04/08 01:46:21;;;;;;;4.32;1.30;;;12.10;78.60;;;;;;7397931;19;20253;-71
2023/04/08 01:48:48;;;;;;;4.07;1.00;;;12.10;78.60;;;;;;7401590;19;19927;-70
2023/04/08 01:51:15;;;;;;;3.80;0.90;;;12.10;79.00;;;;;;7399592;19;19982;-70
2023/04/08 01:53:43;;;;;;;4.20;0.95;;;12.10;78.80;;;;;;7401875;19;19906;-71
2023/04/08 01:56:14;;;;;;;3.97;1.35;;;12.00;78.90;;;;;;7398666;19;20292;-71
2023/04/08 01:58:45;;;;;;;5.68;1.20;;;12.00;79.90;;;;;;7400645;19;19911;-71
2023/04/08 02:01:15;;;;;;;6.05;1.50;;;12.00;79.90;;;;;;7400472;19;20333;-71
2023/04/08 02:03:44;;;;;;;4.82;1.23;;;12.00;80.00;;;;;;7398225;19;20595;-71
2023/04/08 02:06:10;;;;;;;3.72;0.88;;;12.00;80.10;;;;;;7400522;19;19921;-71
2023/04/08 02:08:36;;;;;;;4.00;1.05;;;12.00;80.10;;;;;;7406975;19;19907;-71
2023/04/08 02:11:02;;;;;;;5.38;1.02;;;12.00;80.30;;;;;;7405595;19;20683;-71
2023/04/08 02:13:30;;;;;;;4.50;0.90;;;11.90;80.50;;;;;;7402444;19;19922;-71
2023/04/08 02:16:38;;;;;;;3.30;0.80;;;11.90;80.70;;;;;;7407801;19;19922;-71
2023/04/08 02:19:56;;;;;;;3.17;1.10;;;12.00;80.90;;;;;;7400874;19;19918;-71
2023/04/08 02:22:41;;;;;;;5.97;1.30;;;12.00;81.10;;;;;;7401842;19;19946;-70
2023/04/08 02:25:12;;;;;;;4.28;0.80;;;11.90;81.50;;;;;;7403839;19;19935;-71
2023/04/08 02:27:39;;;;;;;3.88;1.00;;;11.90;81.50;;;;;;7406342;19;20335;-71
2023/04/08 02:30:07;;;;;;;4.57;1.33;;;11.80;81.60;;;;;;7404930;19;19947;-71
2023/04/08 02:32:34;;;;;;;5.90;1.25;;;11.80;82.00;;;;;;7406875;19;19974;-70
2023/04/08 02:35:04;;;;;;;4.45;1.15;;;11.80;82.10;;;;;;7403975;19;20563;-71
2023/04/08 02:37:33;;;;;;;5.05;1.10;;;11.80;82.30;;;;;;7403310;19;19918;-71
2023/04/08 02:39:59;;;;;;;6.82;1.25;;;11.70;82.50;;;;;;7404861;19;20565;-71
2023/04/08 02:42:25;;;;;;;3.58;1.20;;;11.70;82.70;;;;;;7401423;19;19922;-71
2023/04/08 02:44:51;;;;;;;6.05;1.23;;;11.80;83.60;;;;;;7406799;19;19923;-70
2023/04/08 02:47:17;;;;;;;5.85;1.85;;;11.70;82.80;;;;;;7403868;19;20250;-71
2023/04/08 02:49:42;;;;;;;6.65;1.58;;;11.80;83.10;;;;;;7405685;19;19911;-72
2023/04/08 02:52:08;;;;;;;6.85;1.88;;;11.70;83.10;;;;;;7403811;19;19919;-71
2023/04/08 02:54:34;;;;;;;4.53;1.25;;;11.80;83.30;;;;;;7406479;19;19915;-71
2023/04/08 02:57:00;;;;;;;3.65;1.55;;;11.80;83.10;;;;;;7405267;19;20369;-71
2023/04/08 02:59:26;;;;;;;4.78;1.55;;;11.90;83.40;;;;;;7406651;19;19915;-73
2023/04/08 03:01:51;;;;;;;8.98;2.22;;;11.90;83.30;;;;;;7405155;19;20353;-71
2023/04/08 03:04:17;;;;;;;3.95;1.40;;;11.80;83.50;;;;;;7403887;19;19914;-71
2023/04/08 03:06:43;;;;;;;6.65;1.45;;;11.90;84.40;;;;;;7405290;19;19911;-71
2023/04/08 03:09:08;;;;;;;3.42;1.10;;;11.90;84.50;;;;;;7403543;19;19922;-71
2023/04/08 03:11:34;;;;;;;5.93;1.42;;;11.90;85.00;;;;;;7404209;19;20284;-71
2023/04/08 03:14:00;;;;;;;7.00;1.50;;;11.90;85.90;;;;;;7405603;19;19918;-71
2023/04/08 03:16:26;;;;;;;3.90;1.13;;;12.00;86.60;;;;;;7403708;19;20330;-71
2023/04/08 03:18:52;;;;;;;6.97;1.05;;;12.00;87.10;;;;;;7402279;19;19922;-71
2023/04/08 03:21:19;;;;;;;5.45;1.30;;;12.00;87.70;;;;;;7402537;19;19986;-70
2023/04/08 03:23:44;;;;;;;;;;;12.10;88.20;;;;;;7407376;19;19922;-71
2023/04/08 03:26:10;;;;;;;6.18;1.10;;;12.10;88.50;;;;;;7402919;19;19934;-71
2023/04/08 03:28:36;;;;;;;6.85;1.55;;;12.20;88.40;;;;;;7403389;19;19938;-72
2023/04/08 03:31:03;;;;;;;4.68;1.40;;;12.30;88.20;;;;;;7404610;19;19990;-71
2023/04/08 03:33:29;;;;;;;3.63;0.98;;;12.30;88.50;;;;;;7403965;19;19915;-70
2023/04/08 03:35:55;;;;;;;5.45;1.13;;;12.30;88.70;;;;;;7406503;19;19919;-72
2023/04/08 03:38:21;;;;;;;3.47;0.90;;;12.30;88.40;;;;;;7402661;19;19910;-71
2023/04/08 03:40:48;;;;;;;5.47;1.02;;;12.30;88.40;;;;;;7404471;19;19942;-72
2023/04/08 03:43:14;;;;;;;2.67;0.90;;;12.30;88.50;;;;;;7403451;19;19923;-72
2023/04/08 03:45:40;;;;;;;6.28;1.00;;;12.30;88.60;;;;;;7405573;19;19919;-71
2023/04/08 03:48:06;;;;;;;5.95;1.83;;;12.20;88.60;;;;;;7403100;19;19932;-72
2023/04/08 03:50:32;;;;;;;4.18;0.82;;;12.20;88.90;;;;;;7406171;19;19918;-72
2023/04/08 03:52:59;;;;;;;5.22;1.30;;;12.20;89.00;;;;;;7403922;19;20386;-71
2023/04/08 03:55:25;;;;;;;3.47;1.48;;;12.10;89.10;;;;;;7404206;19;19930;-72
2023/04/08 03:57:50;;;;;;;4.82;1.50;;;12.10;89.70;;;;;;7406186;19;20274;-71
2023/04/08 04:00:16;;;;;;;4.35;1.23;;;12.10;89.40;;;;;;7404145;19;19930;-71
2023/04/08 04:02:42;;;;;;;7.10;1.20;;;12.10;89.30;;;;;;7405622;19;19926;-72
2023/04/08 04:05:08;;;;;;;3.70;0.93;;;12.10;89.50;;;;;;7401515;19;19948;-72
2023/04/08 04:07:33;;;;;;;3.67;1.30;;;12.00;89.60;;;;;;7403850;19;20335;-71
2023/04/08 04:09:59;;;;;;;4.78;1.20;;;11.90;89.80;;;;;;7404205;19;19922;-71
2023/04/08 04:12:25;;;;;;;4.68;1.83;;;11.80;90.00;;;;;;7402573;19;19926;-71
2023/04/08 04:14:51;;;;;;;7.22;1.50;;;11.80;90.10;;;;;;7403658;19;19942;-72
2023/04/08 04:17:17;;;;;;;4.65;1.10;;;11.70;90.30;;;;;;7402468;19;19926;-71
2023/04/08 04:19:43;;;;;;;7.43;1.40;;;11.70;90.50;;;;;;7404305;19;20011;-71
2023/04/08 04:22:09;;;;;;;5.78;1.33;;;11.70;90.60;;;;;;7400928;19;19925;-72
2023/04/08 04:24:35;;;;;;;4.60;1.13;;;11.80;90.60;;;;;;7402039;19;19926;-71
2023/04/08 04:27:01;;;;;;;6.55;1.33;;;11.80;90.70;;;;;;7402399;19;19917;-71
2023/04/08 04:29:26;;;;;;;6.10;1.33;;;11.80;90.60;;;;;;7399656;19;19911;-71
2023/04/08 04:31:52;;;;;;;5.63;1.20;;;11.80;90.70;;;;;;7400586;19;19946;-71
2023/04/08 04:34:18;;;;;;;5.38;1.38;;;11.90;90.70;;;;;;7403713;19;19924;-70
2023/04/08 04:36:43;;;;;;;3.95;1.25;;;11.90;90.60;;;;;;7402251;19;19919;-70
2023/04/08 04:39:09;;;;;;;4.18;1.50;;;11.90;90.40;;;;;;7400011;19;19947;-72
2023/04/08 04:41:39;;;;;;;7.50;1.50;;;11.90;90.40;;;;;;7402017;19;19911;-71
2023/04/08 04:44:05;;;;;;;6.45;1.60;;;11.90;90.60;;;;;;7402620;19;19935;-71
2023/04/08 04:46:31;;;;;;;4.70;1.60;;;11.90;90.60;;;;;;7398948;19;19915;-71
2023/04/08 04:48:57;;;;;;;5.03;2.05;;;11.90;90.60;;;;;;7403188;19;20276;-71
2023/04/08 04:51:23;;;;;;;6.25;1.40;;;11.90;90.80;;;;;;7398545;19;19930;-71
2023/04/08 04:53:48;;;;;;;4.75;1.23;;;11.90;90.70;;;;;;7405182;19;19911;-71
2023/04/08 04:56:14;;;;;;;5.95;1.27;;;11.90;90.70;;;;;;7399578;19;19999;-72
2023/04/08 04:58:41;;;;;;;8.07;1.58;;;11.90;90.90;;;;;;7400120;19;19922;-72
2023/04/08 05:01:06;;;;;;;7.07;1.33;;;11.80;90.90;;;;;;7400129;19;20356;-71
2023/04/08 05:03:32;;;;;;;6.32;1.88;;;11.90;91.30;;;;;;7400993;19;19950;-71
2023/04/08 05:05:58;;;;;;;7.70;1.70;;;11.90;91.20;;;;;;7400701;19;20230;-71
2023/04/08 05:08:24;;;;;;;7.82;1.60;;;11.90;91.40;;;;;;7400335;19;19947;-72
2023/04/08 05:10:50;;;;;;;8.25;1.85;;;11.80;91.60;;;;;;7399771;19;19918;-70
2023/04/08 05:13:16;;;;;;;7.15;1.67;;;11.80;91.80;;;;;;7399137;19;19919;-71
2023/04/08 05:15:44;;;;;;;4.95;1.52;;;11.80;91.90;;;;;;7400669;19;20010;-71
2023/04/08 05:18:10;;;;;;;5.80;1.27;;;11.90;92.20;;;;;;7402419;19;19919;-71
2023/04/08 05:20:36;;;;;;;4.57;1.63;;;11.90;92.00;;;;;;7403850;19;19938;-71
2023/04/08 05:23:01;;;;;;;6.40;1.58;;;11.90;91.90;;;;;;7400081;19;19922;-71
2023/04/08 05:25:28;;;;;;;7.35;1.75;;;11.90;91.90;;;;;;7400486;19;19914;-71
2023/04/08 05:27:54;;;;;;;6.95;1.80;;;11.80;91.70;;;;;;7399917;19;20885;-71
2023/04/08 05:30:21;;;;;;;9.27;1.73;;;11.90;91.80;;;;;;7399439;19;19922;-71
2023/04/08 05:32:46;;;;;;;4.80;1.45;;;11.90;91.70;;;;;;7401738;19;19926;-71
2023/04/08 05:35:12;;;;;;;5.45;2.10;;;11.80;91.90;;;;;;7399799;19;20223;-71
2023/04/08 05:37:38;;;;;;;6.30;1.70;;;11.90;91.80;;;;;;7399971;19;19949;-71
2023/04/08 05:40:04;;;;;;;5.07;1.60;;;11.90;91.80;;;;;;7397152;19;19932;-71
2023/04/08 05:42:31;;;;;;;8.07;1.85;;;11.90;91.80;;;;;;7398393;19;19948;-71
2023/04/08 05:44:57;;;;;;;4.90;1.25;;;11.90;91.80;;;;;;7400808;19;19911;-71
2023/04/08 05:47:23;;;;;;;6.05;1.77;;;12.00;91.80;;;;;;7397696;19;19950;-71
2023/04/08 05:49:48;;;;;;;7.38;1.60;;;12.00;91.70;;;;;;7401804;19;19994;-71
2023/04/08 05:52:15;;;;;;;6.53;1.63;;;12.00;91.70;;;;;;7400194;19;19946;-71
2023/04/08 05:54:44;;;;;;;4.10;1.23;;;12.10;91.70;;;;;;7399432;19;19918;-72
2023/04/08 05:57:10;;;;;;;5.03;1.40;;;12.10;91.60;;;;;;7399084;19;19918;-72
2023/04/08 05:59:36;;;;;;;5.07;1.80;;;12.20;91.60;;;;;;7400227;19;20304;-71
2023/04/08 06:02:02;;;;;;;7.05;1.40;;;12.20;91.60;;;;;;7400330;19;19937;-72
2023/04/08 06:04:27;;;;;;;4.13;1.20;;;12.20;91.50;;;;;;7401527;19;20010;-71
2023/04/08 06:06:53;;;;;;;4.57;1.45;;;12.30;91.40;;;;;;7400101;19;19918;-71
2023/04/08 06:09:19;;;;;;;5.03;1.75;;;12.30;91.20;;;;;;7399183;19;19910;-70
2023/04/08 06:11:46;;;;;;;4.47;1.50;;;12.40;91.20;;;;;;7401163;19;19914;-71
2023/04/08 06:14:12;;;;;;;5.10;1.23;;;12.50;91.00;;;;;;7398253;19;19930;-71
2023/04/08 06:16:37;;;;;;;6.80;1.95;;;12.50;90.90;;;;;;7401579;19;19922;-71
2023/04/08 06:19:03;;;;;;;7.32;1.40;;;12.60;90.40;;;;;;7397379;19;19914;-72
2023/04/08 06:21:29;;;;;;;5.30;1.30;;;12.70;89.90;;;;;;7398784;19;20843;-72
2023/04/08 06:23:55;;;;;;;5.72;1.60;;;12.80;87.80;;;;;;7399240;19;19950;-72
2023/04/08 06:26:21;;;;;;;6.20;1.40;;;12.80;87.30;;;;;;7397524;19;20366;-72
2023/04/08 06:28:46;;;;;;;3.63;1.10;;;12.80;86.90;;;;;;7399031;19;20649;-72
2023/04/08 06:31:12;;;;;;;4.45;1.50;;;12.90;86.00;;;;;;7400961;19;19970;-71
2023/04/08 06:33:38;;;;;;;6.68;1.20;;;13.00;85.40;;;;;;7396692;19;19918;-72
2023/04/08 06:36:04;;;;;;;4.15;1.33;;;13.00;85.00;;;;;;7400824;19;19943;-72
2023/04/08 06:38:31;;;;;;;3.63;1.10;;;13.10;84.10;;;;;;7397217;19;19919;-72
2023/04/08 06:41:05;;;;;;;3.60;1.10;;;13.20;82.20;;;;;;7399139;19;20027;-72
2023/04/08 06:43:31;;;;;;;4.15;1.23;;;13.20;79.60;;;;;;7397793;19;20168;-71
2023/04/08 06:45:58;;;;;;;3.38;0.98;;;13.30;79.70;;;;;;7400547;19;19926;-72
2023/04/08 06:48:29;;;;;;;4.55;1.25;;;13.30;79.10;;;;;;7376745;19;19922;-71
2023/04/08 06:50:56;;;;;;;4.60;1.27;;;13.40;77.40;;;;;;7400490;19;19929;-72
2023/04/08 06:53:23;;;;;;;;;;;13.40;75.90;;;;;;7403038;19;19995;-73
2023/04/08 06:55:49;;;;;;;3.70;0.93;;;13.50;73.80;;;;;;7407521;19;19960;-71
2023/04/08 06:58:14;;;;;;;5.35;2.13;;;13.50;72.00;;;;;;7403622;19;20271;-71
2023/04/08 07:00:41;;;;;;;3.25;0.80;;;13.60;70.70;;;;;;7409054;19;20343;-71
2023/04/08 07:03:07;;;;;;;3.72;0.85;;;13.60;70.10;;;;;;7401242;19;19914;-72
2023/04/08 07:05:35;;;;;;;2.53;0.70;;;13.70;69.40;;;;;;7411954;19;20057;-72
2023/04/08 07:08:01;;;;;;;4.03;0.70;;;13.80;68.50;;;;;;7405102;19;19922;-73
2023/04/08 07:10:27;;;;;;;3.33;0.50;;;13.80;66.40;;;;;;7406718;19;19929;-71
2023/04/08 07:12:53;;;;;;;3.55;0.68;;;13.90;66.00;;;;;;7404627;19;19919;-72
2023/04/08 07:15:19;;;;;;;1.85;0.50;;;13.90;65.50;;;;;;7400749;19;21569;-72
2023/04/08 07:17:46;;;;;;;5.18;0.82;;;13.90;64.30;;;;;;7404225;19;19910;-72
2023/04/08 07:20:12;;;;;;;2.30;0.60;;;14.00;64.50;;;;;;7405276;19;19926;-72
2023/04/08 07:22:39;;;;;;;3.08;0.80;;;14.10;65.10;;;;;;7406011;19;19929;-71
2023/04/08 07:25:05;;;;;;;5.55;0.93;;;14.10;63.60;;;;;;7405045;19;19914;-71
2023/04/08 07:27:35;;;;;;;4.05;0.88;;;14.10;63.20;;;;;;7406086;19;19918;-72
2023/04/08 07:30:01;;;;;;;2.30;0.70;;;14.20;63.10;;;;;;7403751;19;19945;-72
2023/04/08 07:32:27;;;;;;;3.72;0.82;;;14.20;62.20;;;;;;7402070;19;19920;-71
2023/04/08 07:34:53;;;;;;;3.47;0.77;;;14.30;62.20;;;;;;7406031;19;19982;-73
2023/04/08 07:37:19;;;;;;;6.15;0.90;;;14.30;62.00;;;;;;7402976;19;19929;-71
2023/04/08 07:39:45;;;;;;;3.55;0.55;;;14.40;61.30;;;;;;7405755;19;20355;-73
2023/04/08 07:42:11;;;;;;;2.88;0.60;;;14.50;60.90;;;;;;7404216;19;19942;-71
2023/04/08 07:44:39;;;;;;;3.60;0.85;;;14.40;61.20;;;;;;7401984;19;19921;-71
2023/04/08 07:47:05;;;;;;;2.63;0.68;;;14.50;61.10;;;;;;7403905;19;19923;-72
2023/04/08 07:49:31;;;;;;;2.85;0.70;;;14.50;61.30;;;;;;7405386;19;19914;-72
2023/04/08 07:51:56;;;;;;;3.75;1.10;;;14.50;61.20;;;;;;7405123;19;20299;-71
2023/04/08 07:54:22;;;;;;;4.32;0.75;;;14.50;60.90;;;;;;7404861;19;19926;-71
2023/04/08 07:56:48;;;;;;;3.22;0.63;;;14.60;60.60;;;;;;7404417;19;19922;-73
2023/04/08 07:59:14;;;;;;;3.75;0.73;;;14.70;60.30;;;;;;7404161;19;19929;-72
2023/04/08 08:01:39;;;;;;;4.20;0.60;;;14.70;60.50;;;;;;7403248;19;19937;-72
2023/04/08 08:04:05;;;;;;;6.10;0.80;;;14.70;60.00;;;;;;7400323;19;19930;-73
2023/04/08 08:06:31;;;;;;;2.40;0.60;;;14.80;60.40;;;;;;7409930;19;19927;-71
2023/04/08 08:08:57;;;;;;;2.97;0.80;;;14.80;60.60;;;;;;7412993;19;19935;-72
2023/04/08 08:11:23;;;;;;;4.30;1.00;;;14.90;60.80;;;;;;7406203;19;19925;-72
2023/04/08 08:13:49;;;;;;;3.75;0.77;;;15.00;60.90;;;;;;7404722;19;19922;-73
2023/04/08 08:16:15;;;;;;;2.45;0.60;;;15.00;60.70;;;;;;7403400;19;19922;-73
2023/04/08 08:18:41;;;;;;;4.15;0.80;;;15.10;60.60;;;;;;7405716;19;20043;-72
2023/04/08 08:21:07;;;;;;;4.93;0.70;;;15.10;60.50;;;;;;7401383;19;19990;-71
2023/04/08 08:23:33;;;;;;;2.25;0.52;;;15.20;60.30;;;;;;7403755;19;19948;-71
2023/04/08 08:26:05;;;;;;;3.13;0.80;;;15.20;60.30;;;;;;7403674;19;19926;-71
2023/04/08 08:28:32;;;;;;;2.20;1.00;;;15.30;61.50;;;;;;7381787;19;20272;-72
2023/04/08 08:30:58;;;;;;;;;;;15.40;61.20;;;;;;7383644;19;20664;-71
2023/04/08 08:33:24;;;;;;;3.65;0.63;;;15.50;61.40;;;;;;7402455;19;19974;-70
2023/04/08 08:35:51;;;;;;;5.35;0.82;;;15.70;62.00;;;;;;7403745;19;19923;-72
2023/04/08 08:38:17;;;;;;;4.50;1.50;;;17.70;59.80;;;;;;7401323;19;20340;-72
2023/04/08 08:40:44;;;;;;;4.45;1.20;;;19.40;57.80;;;;;;7401640;19;20003;-73
2023/04/08 08:43:10;;;;;;;5.15;1.23;;;20.10;56.10;;;;;;7402562;19;20310;-71
2023/04/08 08:45:42;;;;;;;3.08;1.20;;;20.60;53.90;;;;;;7403668;19;19942;-72
2023/04/08 08:48:08;;;;;;;4.78;0.82;;;21.20;53.50;;;;;;7400770;19;19915;-71
2023/04/08 08:50:35;;;;;;;3.60;1.45;;;21.80;53.80;;;;;;7404502;19;20267;-72
2023/04/08 08:53:00;;;;;;;;;;;21.80;54.40;;;;;;7404834;19;19935;-71
2023/04/08 08:55:33;;;;;;;4.70;1.30;;;22.20;53.60;;;;;;7402261;19;19929;-72
2023/04/08 08:58:00;;;;;;;6.65;1.35;;;22.10;53.40;;;;;;7403843;19;19919;-72
2023/04/08 09:00:36;;;;;;;5.55;1.20;;;21.90;53.50;;;;;;7401863;19;19932;-73
2023/04/08 09:03:20;;;;;;;4.45;1.15;;;21.80;53.90;;;;;;7402801;19;19925;-72
2023/04/08 09:05:51;;;;;;;2.92;0.98;;;23.00;53.30;;;;;;7400842;19;19931;-71
2023/04/08 09:08:34;;;;;;;4.72;1.17;;;23.40;52.80;;;;;;7400458;19;19945;-71
2023/04/08 09:11:15;;;;;;;5.38;1.30;;;23.40;52.00;;;;;;7403332;19;19957;-72
2023/04/08 09:13:41;;;;;;;3.03;1.23;;;23.50;52.20;;;;;;7402218;19;19919;-73
2023/04/08 09:16:09;;;;;;;3.42;1.52;;;22.30;53.70;;;;;;7397435;19;19923;-72
2023/04/08 09:18:36;;;;;;;4.95;1.08;;;21.90;54.30;;;;;;7403467;19;19918;-72
2023/04/08 09:21:03;;;;;;;3.30;1.20;;;21.60;54.20;;;;;;7401043;19;19922;-71
2023/04/08 09:23:55;;;;;;;6.00;1.90;;;21.80;55.00;;;;;;7390517;19;19945;-71
2023/04/08 09:26:23;;;;;;;3.40;1.45;;;22.00;55.00;;;;;;7397818;19;19922;-72
2023/04/08 09:29:01;;;;;;;5.18;1.67;;;22.30;56.10;;;;;;7400946;19;19961;-72
2023/04/08 09:31:29;;;;;;;5.38;1.30;;;22.90;55.20;;;;;;7367337;19;19922;-72
2023/04/08 09:34:01;;;;;;;4.68;1.50;;;23.30;54.50;;;;;;7399144;19;19925;-72
2023/04/08 09:36:27;;;;;;;6.03;1.40;;;23.70;52.50;;;;;;7397716;19;19918;-73
2023/04/08 09:38:54;;;;;;;5.90;1.52;;;24.10;50.40;;;;;;7401517;19;19914;-71
2023/04/08 09:41:24;;;;;;;4.40;1.33;;;24.10;50.10;;;;;;7396026;19;19919;-72
2023/04/08 09:43:54;;;;;;;5.40;1.45;;;24.40;50.10;;;;;;7367947;19;19925;-73
2023/04/08 09:46:40;;;;;;;6.63;1.35;;;24.20;49.60;;;;;;7397343;19;19917;-75
2023/04/08 09:49:28;;;;;;;4.95;1.20;;;23.50;49.10;;;;;;7376349;19;19927;-71
2023/04/08 09:52:22;;;;;;;7.18;1.30;;;23.70;49.60;;;;;;7398377;19;19915;-72
2023/04/08 09:54:56;;;;;;;4.72;1.05;;;22.40;49.80;;;;;;7395956;19;19919;-72
2023/04/08 09:57:44;;;;;;;2.50;1.17;;;22.00;51.70;;;;;;7388248;19;20343;-72
2023/04/08 10:00:12;;;;;;;6.38;1.63;;;22.80;52.20;;;;;;7393887;19;19940;-71
2023/04/08 10:03:10;;;;;;;4.53;1.05;;;21.40;53.90;;;;;;7384851;19;19915;-71
2023/04/08 10:05:38;;;;;;;6.38;1.20;;;21.20;55.70;;;;;;7397991;19;19918;-73
2023/04/08 10:08:05;;;;;;;4.85;1.38;;;22.10;57.10;;;;;;7396768;19;19927;-72
2023/04/08 10:10:33;;;;;;;7.72;1.48;;;21.60;56.70;;;;;;7393733;19;19918;-73
2023/04/08 10:12:59;;;;;;;4.47;1.20;;;21.40;57.20;;;;;;7397952;19;19915;-72
2023/04/08 10:15:26;;;;;;;;;;;20.90;58.40;;;;;;7401771;19;19921;-73
2023/04/08 10:18:05;;;;;;;5.85;1.00;;;20.10;59.80;;;;;;7401985;19;19906;-73
2023/04/08 10:20:33;;;;;;;4.40;1.45;;;19.50;62.20;;;;;;7368348;19;20291;-73
2023/04/08 10:23:00;;;;;;;5.10;2.20;;;19.20;64.00;;;;;;7399979;19;20263;-73
2023/04/08 10:25:32;;;;;;;;;;;19.10;65.10;;;;;;7366996;19;19935;-73
2023/04/08 10:28:21;;;;;;;5.15;1.40;;;19.30;65.80;;;;;;7406031;19;20260;-72
2023/04/08 10:30:55;;;;;;;6.90;1.35;;;19.70;65.10;;;;;;7370501;19;19926;-73
2023/04/08 10:33:31;;;;;;;5.97;1.17;;;20.10;64.00;;;;;;7403130;19;19925;-72
2023/04/08 10:36:08;;;;;;;4.82;1.55;;;20.30;63.80;;;;;;7400950;19;20001;-73
2023/04/08 10:38:34;;;;;;;4.28;1.10;;;19.60;65.00;;;;;;7405142;19;19935;-72
2023/04/08 10:41:01;;;;;;;5.40;1.30;;;19.90;65.10;;;;;;7404526;19;19918;-72
2023/04/08 10:43:32;;;;;;;6.95;1.67;;;20.10;64.40;;;;;;7403667;19;19924;-73
2023/04/08 10:45:58;;;;;;;5.68;1.40;;;19.70;65.10;;;;;;7403777;19;20489;-72
2023/04/08 10:48:25;;;;;;;7.40;1.75;;;20.00;65.50;;;;;;7402923;19;19919;-72
2023/04/08 10:51:05;;;;;;;7.93;1.60;;;19.60;66.00;;;;;;7402630;19;20002;-73
2023/04/08 10:53:33;;;;;;;6.88;1.92;;;20.40;64.90;;;;;;7403527;19;19910;-73
2023/04/08 10:56:09;;;;;;;4.95;1.55;;;20.30;64.90;;;;;;7398348;19;19931;-72
2023/04/08 10:58:35;;;;;;;9.18;2.78;;;20.90;64.20;;;;;;7402207;19;20231;-72
2023/04/08 11:01:06;;;;;;;5.88;1.95;;;21.20;64.10;;;;;;7403965;19;19922;-73
2023/04/08 11:03:38;;;;;;;10.50;1.65;;;21.10;64.70;;;;;;7403489;19;19918;-73
2023/04/08 11:06:04;;;;;;;9.52;1.95;;;21.20;63.70;;;;;;7400717;19;19923;-73
2023/04/08 11:08:34;;;;;;;7.32;2.35;;;20.80;64.00;;;;;;7402933;19;19910;-73
2023/04/08 11:11:07;;;;;;;7.25;2.05;;;20.90;64.70;;;;;;7403519;19;20702;-72
2023/04/08 11:13:35;;;;;;;8.45;2.20;;;21.40;64.50;;;;;;7403438;19;20246;-73
2023/04/08 11:16:03;;;;;;;4.43;1.63;;;21.60;63.00;;;;;;7404549;19;19919;-73
2023/04/08 11:18:31;;;;;;;5.93;2.03;;;22.00;62.10;;;;;;7401841;19;20266;-73
2023/04/08 11:20:57;;;;;;;9.85;2.05;;;22.20;61.70;;;;;;7406717;19;19910;-73
2023/04/08 11:23:26;;;;;;;8.65;2.22;;;22.40;61.30;;;;;;7403363;19;19943;-73
2023/04/08 11:25:52;;;;;;;5.15;1.60;;;22.80;60.20;;;;;;7403316;19;19918;-73
2023/04/08 11:28:19;;;;;;;;;;;23.30;59.50;;;;;;7406752;19;20761;-73
2023/04/08 11:30:47;;;;;;;6.38;1.70;;;23.20;59.70;;;;;;7405050;19;19919;-73
2023/04/08 11:33:13;;;;;;;6.03;1.42;;;23.30;58.50;;;;;;7399140;19;19926;-73
2023/04/08 11:35:42;;;;;;;6.03;1.65;;;22.70;60.30;;;;;;7391896;19;19919;-72
2023/04/08 11:38:10;;;;;;;5.53;1.67;;;23.30;59.40;;;;;;7397251;19;20659;-73
2023/04/08 11:40:36;;;;;;;8.05;1.70;;;23.10;58.60;;;;;;7393938;19;21439;-73
2023/04/08 11:43:14;;;;;;;6.13;1.40;;;23.00;59.70;;;;;;7400507;19;19962;-72
2023/04/08 11:45:40;;;;;;;8.15;1.60;;;23.10;59.30;;;;;;7398952;19;19914;-72
2023/04/08 11:48:14;;;;;;;7.10;2.00;;;23.80;59.10;;;;;;7393772;19;19925;-72
2023/04/08 11:50:41;;;;;;;5.38;1.90;;;24.40;58.00;;;;;;7392946;19;20232;-73
2023/04/08 11:53:21;;;;;;;6.25;2.58;;;24.20;58.10;;;;;;7391319;19;20788;-73
2023/04/08 11:55:47;;;;;;;8.35;3.05;;;23.70;58.20;;;;;;7393850;19;20258;-72
2023/04/08 11:58:14;;;;;;;8.68;1.98;;;23.40;59.00;;;;;;7397909;19;19910;-73
2023/04/08 12:00:41;;;;;;;5.90;1.83;;;23.30;59.40;;;;;;7393675;19;20083;-73
2023/04/08 12:03:07;;;;;;;9.90;2.08;;;23.20;59.70;;;;;;7396872;19;19915;-73
2023/04/08 12:05:33;;;;;;;6.72;2.00;;;23.70;59.00;;;;;;7402952;19;20256;-72
2023/04/08 12:07:59;;;;;;;7.32;2.03;;;24.20;58.60;;;;;;7373809;19;20005;-72
2023/04/08 12:10:25;;;;;;;6.70;2.00;;;23.80;58.80;;;;;;7400681;19;19944;-73
2023/04/08 12:12:51;;;;;;;7.65;2.10;;;24.50;58.50;;;;;;7395077;19;20266;-72
2023/04/08 12:15:17;;;;;;;7.78;2.20;;;24.80;57.60;;;;;;7399716;19;19978;-73
2023/04/08 12:17:43;;;;;;;5.60;2.13;;;25.00;57.10;;;;;;7391420;19;19925;-74
2023/04/08 12:20:12;;;;;;;9.32;2.50;;;25.30;55.90;;;;;;7392192;19;19915;-73
2023/04/08 12:22:38;;;;;;;7.75;2.20;;;25.00;55.10;;;;;;7387240;19;19917;-74
2023/04/08 12:25:06;;;;;;;9.38;2.15;;;25.30;55.20;;;;;;7385349;19;19939;-71
2023/04/08 12:27:32;;;;;;;6.93;1.83;;;24.40;56.60;;;;;;7385387;19;19919;-72
2023/04/08 12:29:59;;;;;;;6.00;1.75;;;23.70;57.60;;;;;;7397907;19;20354;-73
2023/04/08 12:32:25;;;;;;;8.77;2.28;;;24.40;56.40;;;;;;7398660;19;19922;-74
2023/04/08 12:34:51;;;;;;;7.55;1.83;;;24.50;55.80;;;;;;7395289;19;19934;-73
2023/04/08 12:37:17;;;;;;;7.75;2.03;;;23.90;54.70;;;;;;7399641;19;19976;-73
2023/04/08 12:39:42;;;;;;;7.25;2.13;;;24.50;55.10;;;;;;7395380;19;20301;-73
2023/04/08 12:42:08;;;;;;;6.43;1.90;;;24.30;55.20;;;;;;7399127;19;20235;-73
2023/04/08 12:44:34;;;;;;;9.00;2.00;;;24.10;55.20;;;;;;7397833;19;19910;-73
2023/04/08 12:47:00;;;;;;;8.63;2.40;;;24.00;55.80;;;;;;7400459;19;19942;-74
2023/04/08 12:49:26;;;;;;;7.47;2.05;;;24.40;56.70;;;;;;7388235;19;20376;-72
2023/04/08 12:51:52;;;;;;;7.18;2.35;;;24.50;56.20;;;;;;7396520;19;19946;-73